createdAt,value
2018-04-26T00:00:01.516Z,52.30
2018-04-26T00:02:27.903Z,52.00
2018-04-26T00:04:54.293Z,52.10
2018-04-26T00:07:20.686Z,52.20
2018-04-26T00:09:47.809Z,52.90
2018-04-26T00:12:14.175Z,52.90
2018-04-26T00:14:40.568Z,53.70
2018-04-26T00:17:06.966Z,52.60
2018-04-26T00:19:33.365Z,53.20
2018-04-26T00:21:59.742Z,53.00
2018-04-26T00:24:26.114Z,53.00
2018-04-26T00:26:53.244Z,53.10
2018-04-26T00:29:19.623Z,53.10
2018-04-26T00:31:45.986Z,53.50
2018-04-26T00:34:12.347Z,57.30
2018-04-26T00:36:38.718Z,58.50
2018-04-26T00:39:05.095Z,58.80
2018-04-26T00:41:31.474Z,59.90
2018-04-26T00:43:57.842Z,60.50
2018-04-26T00:46:24.232Z,61.80
2018-04-26T00:48:50.633Z,61.60
2018-04-26T00:51:29.227Z,61.90
2018-04-26T00:53:55.623Z,62.90
2018-04-26T00:56:22.032Z,63.90
2018-04-26T00:58:49.196Z,64.30
2018-04-26T01:01:15.597Z,64.20
2018-04-26T01:03:42.048Z,63.50
2018-04-26T01:06:09.235Z,64.90
2018-04-26T01:08:35.672Z,64.80
2018-04-26T01:11:02.100Z,64.40
2018-04-26T01:13:28.500Z,64.10
2018-04-26T01:15:55.666Z,65.30
2018-04-26T01:18:22.059Z,65.30
2018-04-26T01:20:48.428Z,64.30
2018-04-26T01:23:15.572Z,65.90
2018-04-26T01:25:42.711Z,66.70
2018-04-26T01:28:09.313Z,66.70
2018-04-26T01:30:35.706Z,67.50
2018-04-26T01:33:02.163Z,67.50
2018-04-26T01:35:28.587Z,67.40
2018-04-26T01:37:54.996Z,66.70
2018-04-26T01:40:22.123Z,66.70
2018-04-26T01:45:13.588Z,66.40
2018-04-26T01:47:39.970Z,66.50
2018-04-26T01:50:06.358Z,66.10
2018-04-26T01:52:32.790Z,66.50
2018-04-26T01:54:59.180Z,67.30
2018-04-26T01:57:25.558Z,67.60
2018-04-26T01:59:51.978Z,67.30
2018-04-26T02:02:18.371Z,66.70
2018-04-26T02:04:44.797Z,67.10
2018-04-26T02:07:11.174Z,67.70
2018-04-26T02:09:37.540Z,68.20
2018-04-26T02:12:03.937Z,68.10
2018-04-26T02:14:30.343Z,68.00
2018-04-26T02:16:57.476Z,67.70
2018-04-26T02:19:23.855Z,67.60
2018-04-26T02:21:50.264Z,67.50
2018-04-26T02:24:16.645Z,67.60
2018-04-26T02:26:43.018Z,67.20
2018-04-26T02:29:10.743Z,67.70
2018-04-26T02:31:37.217Z,68.30
2018-04-26T02:34:07.846Z,68.30
2018-04-26T02:36:35.947Z,68.20
2018-04-26T02:39:04.250Z,68.90
2018-04-26T02:41:30.726Z,70.10
2018-04-26T02:43:58.291Z,70.90
2018-04-26T02:46:24.826Z,71.70
2018-04-26T02:48:51.265Z,71.80
2018-04-26T02:51:18.530Z,71.40
2018-04-26T02:53:46.955Z,70.80
2018-04-26T02:56:13.525Z,70.40
2018-04-26T02:58:41.629Z,70.50
2018-04-26T03:01:08.083Z,70.20
2018-04-26T03:03:34.930Z,70.70
2018-04-26T03:06:01.446Z,72.30
2018-04-26T03:08:29.362Z,73.30
2018-04-26T03:10:55.880Z,72.90
2018-04-26T03:13:22.461Z,73.40
2018-04-26T03:15:49.723Z,74.10
2018-04-26T03:18:16.174Z,74.00
2018-04-26T03:20:43.357Z,75.10
2018-04-26T03:23:10.603Z,76.20
2018-04-26T03:25:37.678Z,76.10
2018-04-26T03:28:04.106Z,77.60
2018-04-26T03:30:32.533Z,78.20
2018-04-26T03:32:58.962Z,78.20
2018-04-26T03:35:25.470Z,79.30
2018-04-26T03:37:53.501Z,81.00
2018-04-26T03:40:20.667Z,80.80
2018-04-26T03:42:48.141Z,80.60
2018-04-26T03:45:14.611Z,79.60
2018-04-26T03:47:41.950Z,80.00
2018-04-26T03:50:08.373Z,79.80
2018-04-26T03:52:34.794Z,79.00
2018-04-26T03:55:01.170Z,78.60
2018-04-26T03:57:27.567Z,78.40
2018-04-26T04:00:07.067Z,80.20
2018-04-26T04:02:45.810Z,79.70
2018-04-26T04:05:25.251Z,80.20
2018-04-26T04:07:53.138Z,81.50
2018-04-26T04:10:19.514Z,81.50
2018-04-26T04:12:45.900Z,81.30
2018-04-26T04:15:13.099Z,81.70
2018-04-26T04:17:39.511Z,81.20
2018-04-26T04:20:05.974Z,81.50
2018-04-26T04:22:32.356Z,80.80
2018-04-26T04:24:59.484Z,81.20
2018-04-26T04:27:25.985Z,81.20
2018-04-26T04:29:52.381Z,81.50
2018-04-26T04:32:19.519Z,81.70
2018-04-26T04:34:46.639Z,82.30
2018-04-26T04:37:13.038Z,82.20
2018-04-26T04:39:39.428Z,82.70
2018-04-26T04:42:06.600Z,81.90
2018-04-26T04:44:33.720Z,81.80
2018-04-26T04:47:00.101Z,81.80
2018-04-26T04:49:26.499Z,81.90
2018-04-26T04:51:53.606Z,82.20
2018-04-26T04:54:20.009Z,82.10
2018-04-26T04:56:46.404Z,82.30
2018-04-26T04:59:12.795Z,81.60
2018-04-26T05:01:39.176Z,82.00
2018-04-26T05:04:06.553Z,80.50
2018-04-26T05:06:32.969Z,81.00
2018-04-26T05:09:00.137Z,81.90
2018-04-26T05:11:26.548Z,81.90
2018-04-26T05:13:53.807Z,81.70
2018-04-26T05:16:20.132Z,81.70
2018-04-26T05:18:47.247Z,82.10
2018-04-26T05:21:13.699Z,81.50
2018-04-26T05:23:40.830Z,81.20
2018-04-26T05:26:07.260Z,80.80
2018-04-26T05:28:34.441Z,80.40
2018-04-26T05:31:01.666Z,80.50
2018-04-26T05:33:28.076Z,80.50
2018-04-26T05:35:54.466Z,79.80
2018-04-26T05:38:21.603Z,80.40
2018-04-26T05:40:48.767Z,80.20
2018-04-26T05:43:15.926Z,79.60
2018-04-26T05:45:43.056Z,79.90
2018-04-26T05:48:09.494Z,80.00
2018-04-26T05:50:36.683Z,78.90
2018-04-26T05:53:03.162Z,78.90
2018-04-26T05:55:30.339Z,79.10
2018-04-26T05:57:56.741Z,79.50
2018-04-26T06:00:23.152Z,79.90
2018-04-26T06:02:49.551Z,80.60
2018-04-26T06:05:15.934Z,81.10
2018-04-26T06:07:42.325Z,81.10
2018-04-26T06:10:08.718Z,80.70
2018-04-26T06:12:35.117Z,81.00
2018-04-26T06:15:01.518Z,81.60
2018-04-26T06:17:27.913Z,81.00
2018-04-26T06:19:54.305Z,80.80
2018-04-26T06:22:20.753Z,80.30
2018-04-26T06:24:47.152Z,79.80
2018-04-26T06:27:13.561Z,79.30
2018-04-26T06:29:40.694Z,78.90
2018-04-26T06:32:08.722Z,78.70
2018-04-26T06:34:35.103Z,78.60
2018-04-26T06:37:01.494Z,77.20
2018-04-26T06:39:27.943Z,77.90
2018-04-26T06:41:54.336Z,77.50
2018-04-26T06:44:20.762Z,76.80
2018-04-26T06:46:47.170Z,76.20
2018-04-26T06:49:14.299Z,75.90
2018-04-26T06:51:40.673Z,75.90
2018-04-26T06:54:07.133Z,75.30
2018-04-26T06:56:33.533Z,75.80
2018-04-26T06:58:59.925Z,75.20
2018-04-26T07:01:26.316Z,76.10
2018-04-26T07:03:52.718Z,75.70
2018-04-26T07:06:19.887Z,73.70
2018-04-26T07:08:46.287Z,73.70
2018-04-26T07:11:12.681Z,74.60
2018-04-26T07:13:39.067Z,75.00
2018-04-26T07:16:06.235Z,73.90
2018-04-26T07:18:32.618Z,73.90
2018-04-26T07:20:59.005Z,74.10
2018-04-26T07:23:25.423Z,74.60
2018-04-26T07:25:51.892Z,74.70
2018-04-26T07:28:18.293Z,74.40
2018-04-26T07:30:44.698Z,72.70
2018-04-26T07:33:11.084Z,72.50
2018-04-26T07:35:37.483Z,72.70
2018-04-26T07:38:04.686Z,73.80
2018-04-26T07:40:31.254Z,73.80
2018-04-26T07:42:58.379Z,74.20
2018-04-26T07:45:24.762Z,74.20
2018-04-26T07:47:51.179Z,75.30
2018-04-26T07:50:18.323Z,75.20
2018-04-26T07:52:45.466Z,75.90
2018-04-26T07:55:12.603Z,75.90
2018-04-26T07:57:38.990Z,75.90
2018-04-26T08:00:05.403Z,76.40
2018-04-26T08:02:31.801Z,76.90
2018-04-26T08:04:58.179Z,78.20
2018-04-26T08:07:24.587Z,78.90
2018-04-26T08:09:51.720Z,79.20
2018-04-26T08:12:18.102Z,79.20
2018-04-26T08:14:44.504Z,79.10
2018-04-26T08:17:11.651Z,80.10
2018-04-26T08:19:38.873Z,78.80
2018-04-26T08:22:05.200Z,78.80
2018-04-26T08:24:31.600Z,78.40
2018-04-26T08:26:57.996Z,78.50
2018-04-26T08:29:25.216Z,77.80
2018-04-26T08:31:51.649Z,77.80
2018-04-26T08:34:18.792Z,78.70
2018-04-26T08:36:45.203Z,78.70
2018-04-26T08:39:11.663Z,78.90
2018-04-26T08:41:38.154Z,78.70
2018-04-26T08:44:04.584Z,79.10
2018-04-26T08:46:30.975Z,78.00
2018-04-26T08:48:57.398Z,76.80
2018-04-26T08:51:23.808Z,68.20
2018-04-26T08:53:50.198Z,69.20
2018-04-26T08:56:17.348Z,69.60
2018-04-26T08:58:43.798Z,69.50
2018-04-26T09:01:10.220Z,69.90
2018-04-26T09:03:37.383Z,68.40
2018-04-26T09:06:03.797Z,68.40
2018-04-26T09:08:30.275Z,67.90
2018-04-26T09:10:56.721Z,67.70
2018-04-26T09:13:23.257Z,68.30
2018-04-26T09:15:49.734Z,67.70
2018-04-26T09:18:16.170Z,68.20
2018-04-26T09:20:42.586Z,67.00
2018-04-26T09:23:08.988Z,67.50
2018-04-26T09:25:35.416Z,67.10
2018-04-26T09:28:01.815Z,67.20
2018-04-26T09:30:28.198Z,68.80
2018-04-26T09:32:54.629Z,69.50
2018-04-26T09:35:21.063Z,70.40
2018-04-26T09:37:48.960Z,69.00
2018-04-26T09:40:15.397Z,68.90
2018-04-26T09:42:41.892Z,67.20
2018-04-26T09:45:09.059Z,67.00
2018-04-26T09:47:35.525Z,66.90
2018-04-26T09:50:01.968Z,67.50
2018-04-26T09:52:28.387Z,67.20
2018-04-26T09:54:54.839Z,64.30
2018-04-26T09:57:21.243Z,64.10
2018-04-26T09:59:48.380Z,61.80
2018-04-26T10:02:14.821Z,61.80
2018-04-26T10:04:47.242Z,61.60
2018-04-26T10:07:13.671Z,63.30
2018-04-26T10:09:40.082Z,62.50
2018-04-26T10:12:06.481Z,62.20
2018-04-26T10:14:33.630Z,63.20
2018-04-26T10:17:00.121Z,62.60
2018-04-26T10:19:26.484Z,63.20
2018-04-26T10:21:52.942Z,63.30
2018-04-26T10:24:20.212Z,63.10
2018-04-26T10:26:46.752Z,63.10
2018-04-26T10:29:13.892Z,62.10
2018-04-26T10:31:40.312Z,61.50
2018-04-26T10:34:07.456Z,63.20
2018-04-26T10:36:34.595Z,63.30
2018-04-26T10:39:00.997Z,63.20
2018-04-26T10:41:27.395Z,63.40
2018-04-26T10:43:53.799Z,62.90
2018-04-26T10:46:20.970Z,63.90
2018-04-26T10:48:48.182Z,61.50
2018-04-26T10:51:14.654Z,61.40
2018-04-26T10:53:41.051Z,60.60
2018-04-26T10:56:07.498Z,62.40
2018-04-26T10:58:34.694Z,62.40
2018-04-26T11:01:01.135Z,62.40
2018-04-26T11:03:28.267Z,62.60
2018-04-26T11:05:54.662Z,62.60
2018-04-26T11:08:21.046Z,63.00
2018-04-26T11:10:47.435Z,63.00
2018-04-26T11:13:13.839Z,61.10
2018-04-26T11:15:40.262Z,61.80
2018-04-26T11:18:06.675Z,60.80
2018-04-26T11:20:33.077Z,61.20
2018-04-26T11:23:00.235Z,58.50
2018-04-26T11:25:26.661Z,58.40
2018-04-26T11:27:53.860Z,57.30
2018-04-26T11:30:20.271Z,57.30
2018-04-26T11:32:46.701Z,58.40
2018-04-26T11:35:13.096Z,57.10
2018-04-26T11:37:39.571Z,56.80
2018-04-26T11:40:06.004Z,57.00
2018-04-26T11:42:32.421Z,54.70
2018-04-26T11:44:58.855Z,56.30
2018-04-26T11:47:25.239Z,58.00
2018-04-26T11:49:51.670Z,56.00
2018-04-26T11:52:18.160Z,55.60
2018-04-26T11:54:44.565Z,55.20
2018-04-26T11:57:10.979Z,53.60
2018-04-26T11:59:37.421Z,52.40
2018-04-26T12:02:03.857Z,52.00
2018-04-26T12:04:31.078Z,54.20
2018-04-26T12:06:57.495Z,54.20
2018-04-26T12:09:23.968Z,55.10
2018-04-26T12:11:50.367Z,52.60
2018-04-26T12:14:16.808Z,53.00
2018-04-26T12:16:43.211Z,51.90
2018-04-26T12:19:09.615Z,54.20
2018-04-26T12:21:36.009Z,51.20
2018-04-26T12:24:02.417Z,52.20
2018-04-26T12:26:28.840Z,51.80
2018-04-26T12:28:55.242Z,52.60
2018-04-26T12:31:22.444Z,51.30
2018-04-26T12:33:48.902Z,51.20
2018-04-26T12:36:15.297Z,49.90
2018-04-26T12:38:41.736Z,48.40
2018-04-26T12:41:08.168Z,47.00
2018-04-26T12:43:34.590Z,49.80
2018-04-26T12:46:01.025Z,50.50
2018-04-26T12:48:28.149Z,47.90
2018-04-26T12:50:55.285Z,48.70
2018-04-26T12:53:21.699Z,48.70
2018-04-26T12:55:48.105Z,48.50
2018-04-26T12:58:16.662Z,49.50
2018-04-26T13:00:43.789Z,51.40
2018-04-26T13:03:10.179Z,51.40
2018-04-26T13:05:36.680Z,49.80
2018-04-26T13:08:03.169Z,49.80
2018-04-26T13:10:29.512Z,49.30
2018-04-26T13:12:55.923Z,48.00
2018-04-26T13:15:22.823Z,49.60
2018-04-26T13:17:49.977Z,46.00
2018-04-26T13:20:16.362Z,46.00
2018-04-26T13:22:43.910Z,45.80
2018-04-26T13:25:11.113Z,46.70
2018-04-26T13:27:37.719Z,47.50
2018-04-26T13:30:04.141Z,46.70
2018-04-26T13:32:32.251Z,47.60
2018-04-26T13:35:00.235Z,47.80
2018-04-26T13:37:27.773Z,48.30
2018-04-26T13:39:55.949Z,49.50
2018-04-26T13:42:22.436Z,49.50
2018-04-26T13:44:49.321Z,49.10
2018-04-26T13:47:17.604Z,47.20
2018-04-26T13:49:44.329Z,47.10
2018-04-26T13:52:15.030Z,48.80
2018-04-26T13:54:41.752Z,48.70
2018-04-26T13:57:09.209Z,47.40
2018-04-26T13:59:37.945Z,48.30
2018-04-26T14:02:06.306Z,46.20
2018-04-26T14:04:34.446Z,47.20
2018-04-26T14:07:01.389Z,47.20
2018-04-26T14:09:28.443Z,47.60
2018-04-26T14:11:56.325Z,46.60
2018-04-26T14:14:23.855Z,47.30
2018-04-26T14:16:50.473Z,46.30
2018-04-26T14:19:17.943Z,46.80
2018-04-26T14:21:46.055Z,46.00
2018-04-26T14:24:13.419Z,46.40
2018-04-26T14:26:39.918Z,46.40
2018-04-26T14:29:08.496Z,46.70
2018-04-26T14:31:36.888Z,46.70
2018-04-26T14:34:03.435Z,47.80
2018-04-26T14:36:30.481Z,45.60
2018-04-26T14:38:57.720Z,47.30
2018-04-26T14:41:24.446Z,46.10
2018-04-26T14:43:51.322Z,46.70
2018-04-26T14:46:17.838Z,44.70
2018-04-26T14:48:44.352Z,44.60
2018-04-26T14:51:10.838Z,46.50
2018-04-26T14:53:37.304Z,44.00
2018-04-26T14:56:05.415Z,43.30
2018-04-26T14:58:31.883Z,43.20
2018-04-26T15:00:59.890Z,43.10
2018-04-26T15:03:28.147Z,43.80
2018-04-26T15:05:55.543Z,44.10
2018-04-26T15:08:22.338Z,44.00
2018-04-26T15:11:03.531Z,43.90
2018-04-26T15:13:30.234Z,43.80
2018-04-26T15:15:56.770Z,43.80
2018-04-26T15:18:24.887Z,44.40
2018-04-26T15:20:51.404Z,45.00
2018-04-26T15:23:18.765Z,44.10
2018-04-26T15:25:45.302Z,43.20
2018-04-26T15:28:13.611Z,43.40
2018-04-26T15:30:42.800Z,43.30
2018-04-26T15:33:09.331Z,43.30
2018-04-26T15:35:36.386Z,43.10
2018-04-26T15:38:03.708Z,44.10
2018-04-26T15:40:31.101Z,44.10
2018-04-26T15:42:57.670Z,43.80
2018-04-26T15:45:25.011Z,43.00
2018-04-26T15:47:52.204Z,42.80
2018-04-26T15:53:29.730Z,43.00
2018-04-26T15:56:08.273Z,43.30
2018-04-26T15:58:47.222Z,43.00
2018-04-26T16:01:26.136Z,44.50
2018-04-26T16:04:06.419Z,44.20
2018-04-26T16:06:45.155Z,44.60
2018-04-26T16:09:23.928Z,45.10
2018-04-26T16:12:02.655Z,43.80
2018-04-26T16:14:53.231Z,45.00
2018-04-26T16:17:52.760Z,44.90
2018-04-26T16:20:38.398Z,44.30
2018-04-26T16:23:23.450Z,44.30
2018-04-26T16:26:02.132Z,43.50
2018-04-26T16:28:47.239Z,44.90
2018-04-26T16:31:32.408Z,45.10
2018-04-26T16:34:21.956Z,45.30
2018-04-26T16:37:00.731Z,45.30
2018-04-26T16:39:27.917Z,44.30
2018-04-26T16:41:54.594Z,45.90
2018-04-26T16:44:23.220Z,46.10
2018-04-26T16:46:50.681Z,45.80
2018-04-26T16:49:17.968Z,45.70
2018-04-26T16:51:44.518Z,45.50
2018-04-26T16:54:12.556Z,44.50
2018-04-26T16:56:39.748Z,45.20
2018-04-26T16:59:08.402Z,44.60
2018-04-26T17:01:36.654Z,45.60
2018-04-26T17:04:03.256Z,45.60
2018-04-26T17:06:30.805Z,44.60
2018-04-26T17:08:59.114Z,43.60
2018-04-26T17:11:26.348Z,41.50
2018-04-26T17:13:53.860Z,42.50
2018-04-26T17:16:20.670Z,42.10
2018-04-26T17:18:48.356Z,42.40
2018-04-26T17:21:14.976Z,42.70
2018-04-26T17:23:42.965Z,41.70
2018-04-26T17:26:09.754Z,41.70
2018-04-26T17:28:39.014Z,41.10
2018-04-26T17:31:05.649Z,41.00
2018-04-26T17:33:33.268Z,41.80
2018-04-26T17:36:01.176Z,42.10
2018-04-26T17:38:29.800Z,42.40
2018-04-26T17:40:58.138Z,42.00
2018-04-26T17:43:25.555Z,41.90
2018-04-26T17:45:52.950Z,42.50
2018-04-26T17:48:19.880Z,42.50
2018-04-26T17:50:46.435Z,43.00
2018-04-26T17:53:12.978Z,43.20
2018-04-26T17:55:40.393Z,43.50
2018-04-26T17:58:08.250Z,43.90
2018-04-26T18:00:35.103Z,43.80
2018-04-26T18:03:01.585Z,43.20
2018-04-26T18:05:28.849Z,42.90
2018-04-26T18:07:55.355Z,43.50
2018-04-26T18:10:22.601Z,44.30
2018-04-26T18:12:49.247Z,44.60
2018-04-26T18:15:15.882Z,44.90
2018-04-26T18:17:44.052Z,45.00
2018-04-26T18:20:11.211Z,45.00
2018-04-26T18:22:39.366Z,45.10
2018-04-26T18:25:06.453Z,45.00
2018-04-26T18:27:33.038Z,45.10
2018-04-26T18:30:00.665Z,46.20
2018-04-26T18:32:27.801Z,46.20
2018-04-26T18:34:55.738Z,46.10
2018-04-26T18:37:22.888Z,46.40
2018-04-26T18:39:49.345Z,46.60
2018-04-26T18:42:15.832Z,47.20
2018-04-26T18:44:43.672Z,47.60
2018-04-26T18:47:10.911Z,47.90
2018-04-26T18:49:37.759Z,47.80
2018-04-26T18:52:05.832Z,49.30
2018-04-26T18:54:32.266Z,49.40
2018-04-26T18:56:58.728Z,50.40
2018-04-26T18:59:25.060Z,51.20
2018-04-26T19:01:52.217Z,51.20
2018-04-26T19:04:19.404Z,50.90
2018-04-26T19:06:45.857Z,50.80
2018-04-26T19:09:12.320Z,51.50
2018-04-26T19:11:39.591Z,51.60
2018-04-26T19:14:06.742Z,52.20
2018-04-26T19:16:33.170Z,52.20
2018-04-26T19:19:00.300Z,52.40
2018-04-26T19:21:26.706Z,52.40
2018-04-26T19:23:53.117Z,52.90
2018-04-26T19:26:19.519Z,53.10
2018-04-26T19:28:45.915Z,53.60
2018-04-26T19:31:12.319Z,52.90
2018-04-26T19:33:39.622Z,52.40
2018-04-26T19:36:06.032Z,52.80
2018-04-26T19:38:32.475Z,54.00
2018-04-26T19:40:58.896Z,53.40
2018-04-26T19:43:26.782Z,53.50
2018-04-26T19:45:53.178Z,53.50
2018-04-26T19:48:19.659Z,54.00
2018-04-26T19:50:46.816Z,54.30
2018-04-26T19:53:13.253Z,54.20
2018-04-26T19:55:40.406Z,54.50
2018-04-26T19:58:07.539Z,55.50
2018-04-26T20:00:33.914Z,55.50
2018-04-26T20:03:00.301Z,55.40
2018-04-26T20:05:26.713Z,57.30
2018-04-26T20:07:53.111Z,56.90
2018-04-26T20:10:19.515Z,57.30
2018-04-26T20:12:46.687Z,59.50
2018-04-26T20:15:13.093Z,59.50
2018-04-26T20:17:40.267Z,61.00
2018-04-26T20:20:06.672Z,60.90
2018-04-26T20:22:33.815Z,61.80
2018-04-26T20:25:00.233Z,61.70
2018-04-26T20:27:26.646Z,62.00
2018-04-26T20:29:53.077Z,62.00
2018-04-26T20:32:19.485Z,63.10
2018-04-26T20:34:45.897Z,62.60
2018-04-26T20:37:13.090Z,62.70
2018-04-26T20:39:39.531Z,62.70
2018-04-26T20:42:05.959Z,62.70
2018-04-26T20:44:46.726Z,62.70
2018-04-26T20:47:13.157Z,63.10
2018-04-26T20:49:39.610Z,62.80
2018-04-26T20:52:06.059Z,62.70
2018-04-26T20:54:32.456Z,62.70
2018-04-26T20:56:58.936Z,63.00
2018-04-26T20:59:26.103Z,63.30
2018-04-26T21:01:53.273Z,63.50
2018-04-26T21:04:19.707Z,63.40
2018-04-26T21:06:46.118Z,63.50
2018-04-26T21:09:13.286Z,63.60
2018-04-26T21:11:39.694Z,63.50
2018-04-26T21:14:06.945Z,63.90
2018-04-26T21:16:33.300Z,63.90
2018-04-26T21:18:59.725Z,64.20
2018-04-26T21:21:26.175Z,64.70
2018-04-26T21:23:52.600Z,64.70
2018-04-26T21:26:19.004Z,64.60
2018-04-26T21:28:46.153Z,65.60
2018-04-26T21:31:13.302Z,65.50
2018-04-26T21:33:40.708Z,65.50
2018-04-26T21:36:07.127Z,65.40
2018-04-26T21:38:33.539Z,65.60
2018-04-26T21:40:59.971Z,66.90
2018-04-26T21:43:26.388Z,67.30
2018-04-26T21:45:53.543Z,66.50
2018-04-26T21:48:20.707Z,67.80
2018-04-26T21:50:53.177Z,67.80
2018-04-26T21:53:26.287Z,68.20
2018-04-26T21:55:58.871Z,68.10
2018-04-26T21:58:31.286Z,68.40
2018-04-26T22:01:03.828Z,69.10
2018-04-26T22:03:51.204Z,69.80
2018-04-26T22:06:18.384Z,70.40
2018-04-26T22:08:44.831Z,70.40
2018-04-26T22:11:11.241Z,70.50
2018-04-26T22:13:37.675Z,70.90
2018-04-26T22:16:04.113Z,71.40
2018-04-26T22:18:30.526Z,70.90
2018-04-26T22:20:57.704Z,71.60
2018-04-26T22:23:24.131Z,71.50
2018-04-26T22:25:50.535Z,72.00
2018-04-26T22:28:16.944Z,72.30
2018-04-26T22:30:43.345Z,72.60
2018-04-26T22:33:09.760Z,72.40
2018-04-26T22:35:36.207Z,71.60
2018-04-26T22:38:02.605Z,71.60
2018-04-26T22:40:29.755Z,72.10
2018-04-26T22:42:56.910Z,73.00
2018-04-26T22:45:24.057Z,72.70
2018-04-26T22:47:51.205Z,73.80
2018-04-26T22:50:18.350Z,74.40
2018-04-26T22:52:44.746Z,74.30
2018-04-26T22:55:11.299Z,74.50
2018-04-26T22:57:37.746Z,74.00
2018-04-26T23:00:04.937Z,73.10
2018-04-26T23:02:31.363Z,73.00
2018-04-26T23:04:57.774Z,74.30
2018-04-26T23:07:24.956Z,73.60
2018-04-26T23:09:51.374Z,73.50
2018-04-26T23:12:17.775Z,75.00
2018-04-26T23:14:44.182Z,76.40
2018-04-26T23:17:10.637Z,76.40
2018-04-26T23:19:37.036Z,76.20
2018-04-26T23:22:03.433Z,75.20
2018-04-26T23:24:29.848Z,75.40
2018-04-26T23:26:57.065Z,74.70
2018-04-26T23:29:23.470Z,74.60
2018-04-26T23:31:49.858Z,74.50
2018-04-26T23:34:17.051Z,75.20
2018-04-26T23:36:44.168Z,77.00
2018-04-26T23:39:11.304Z,77.40
2018-04-26T23:41:38.450Z,77.70
2018-04-26T23:44:04.891Z,76.90
2018-04-26T23:46:32.044Z,78.10
2018-04-26T23:48:59.186Z,77.90
2018-04-26T23:51:26.347Z,78.80
2018-04-26T23:53:53.505Z,80.50
2018-04-26T23:56:20.644Z,81.20
2018-04-26T23:58:47.784Z,82.00
